Terminal Aerodrome Forecast
Issued by NWS Sterling, VA

Current Version | Previous Version | Graphics & Text | Print | Product List | Glossary On
Versions: 1 2 3 4 5 6 7 8 9 10 11 12 13 14 15 16
000
FTUS41 KLWX 301731
TAFMRB
TAF
KMRB 301731Z 3018/0118 01006KT P6SM OVC014
     FM010300 05008KT 1 1/2SM -SHRA OVC008
     FM010600 04005KT 5SM -SHRA OVC008=

USA.gov is the U.S. government's official web portal to all federal, state and local government web resources and services.